Time;durP1;ratioP1;P1;durP2;ratioP2;P2;SDS_P1;SDS_P2;PMS_P1;PMS_P2;Temp;Humidity;BMP_temperature;BMP_pressure;BME280_temperature;BME280_humidity;BME280_pressure;Samples;Min_cycle;Max_cycle;Signal;HPM_P1;HPM_P2
2022/03/10 00:01:50;;;;;;;68.80;33.50;;;;;;;4.78;58.17;101353.28;6277017;22;20015;-80
2022/03/10 00:04:15;;;;;;;67.93;32.92;;;;;;;4.94;58.20;101359.19;6277190;22;20418;-81
2022/03/10 00:06:41;;;;;;;67.78;33.63;;;;;;;5.11;56.86;101364.09;6277722;22;20000;-81
2022/03/10 00:09:06;;;;;;;66.47;33.15;;;;;;;5.14;56.89;101362.09;6276432;22;20040;-83
2022/03/10 00:11:35;;;;;;;62.63;33.28;;;;;;;5.20;56.66;101366.94;6278820;22;20012;-82
2022/03/10 00:14:00;;;;;;;68.10;34.08;;;;;;;5.13;57.33;101365.69;6276773;22;20015;-81
2022/03/10 00:16:26;;;;;;;63.17;31.90;;;;;;;5.25;56.60;101364.00;6277720;22;20003;-81
2022/03/10 00:18:52;;;;;;;67.15;31.65;;;;;;;5.03;57.65;101371.69;6284627;22;20015;-79
2022/03/10 00:21:17;;;;;;;62.30;32.38;;;;;;;4.82;57.70;101376.63;6282801;22;20065;-81
2022/03/10 00:23:43;;;;;;;66.70;34.28;;;;;;;4.85;57.65;101375.56;6283677;22;20006;-79
2022/03/10 00:26:08;;;;;;;66.28;33.28;;;;;;;4.93;58.27;101378.53;6283196;22;20035;-83
2022/03/10 00:28:34;;;;;;;67.32;32.78;;;;;;;4.88;58.50;101377.97;6277597;22;20097;-81
2022/03/10 00:30:59;;;;;;;67.70;33.92;;;;;;;4.76;58.53;101378.81;6277864;22;20435;-81
2022/03/10 00:33:25;;;;;;;65.25;31.98;;;;;;;4.67;58.48;101378.50;6276781;22;20016;-81
2022/03/10 00:35:51;;;;;;;65.43;32.60;;;;;;;4.92;58.16;101382.09;6277174;22;20042;-81
2022/03/10 00:38:17;;;;;;;70.07;33.63;;;;;;;4.81;58.39;101377.56;6276609;22;20007;-82
2022/03/10 00:40:43;;;;;;;69.72;33.33;;;;;;;4.94;58.22;101381.03;6276706;22;20374;-81
2022/03/10 00:43:12;;;;;;;70.55;32.30;;;;;;;5.16;57.02;101370.75;6276830;22;20031;-82
2022/03/10 00:45:39;;;;;;;64.03;33.00;;;;;;;5.18;56.94;101378.50;6276112;22;20017;-82
2022/03/10 00:48:04;;;;;;;65.30;32.38;;;;;;;5.24;56.60;101378.06;6275823;22;20057;-81
2022/03/10 00:50:30;;;;;;;64.63;32.78;;;;;;;5.21;56.24;101378.28;6276730;22;20004;-80
2022/03/10 00:53:01;;;;;;;68.93;33.00;;;;;;;5.38;55.88;101372.69;6274334;22;20099;-80
2022/03/10 00:55:27;;;;;;;59.63;31.83;;;;;;;5.21;56.51;101373.88;6274772;22;20030;-82
2022/03/10 00:57:53;;;;;;;65.45;33.30;;;;;;;4.90;57.12;101370.84;6276707;22;20388;-81
2022/03/10 01:00:19;;;;;;;58.97;30.35;;;;;;;5.15;57.06;101366.41;6275207;22;20334;-81
2022/03/10 01:02:45;;;;;;;61.85;31.75;;;;;;;5.16;56.80;101370.75;6276433;22;20012;-81
2022/03/10 01:05:11;;;;;;;66.07;32.03;;;;;;;5.38;56.08;101356.91;6276021;22;20004;-80
2022/03/10 01:07:37;;;;;;;67.13;33.28;;;;;;;5.35;55.69;101369.44;6276222;22;20012;-81
2022/03/10 01:10:06;;;;;;;73.90;32.72;;;;;;;5.10;57.05;101368.50;6276793;22;20000;-81
2022/03/10 01:12:33;;;;;;;65.03;33.60;;;;;;;4.62;58.50;101362.22;6274226;22;20468;-81
2022/03/10 01:14:59;;;;;;;66.05;32.03;;;;;;;4.38;58.86;101369.09;6275591;22;20012;-81
2022/03/10 01:17:25;;;;;;;72.15;32.72;;;;;;;4.25;60.35;101365.59;6276229;22;20541;-82
2022/03/10 01:19:51;;;;;;;69.75;33.85;;;;;;;4.00;61.15;101361.16;6277558;22;20000;-80
2022/03/10 01:22:17;;;;;;;63.13;31.23;;;;;;;4.06;61.02;101359.91;6278033;22;20090;-81
2022/03/10 01:24:43;;;;;;;68.78;32.05;;;;;;;4.26;60.35;101364.69;6277732;22;20085;-81
2022/03/10 01:27:10;;;;;;;62.60;30.42;;;;;;;4.45;59.81;101359.03;6277940;22;20094;-80
2022/03/10 01:29:35;;;;;;;69.85;32.63;;;;;;;3.91;61.02;101360.91;6278468;22;20506;-82
2022/03/10 01:32:01;;;;;;;61.75;30.58;;;;;;;3.97;61.45;101365.75;6278051;22;20012;-82
2022/03/10 01:34:27;;;;;;;60.75;30.85;;;;;;;3.99;61.40;101369.09;6277987;22;20012;-81
2022/03/10 01:36:52;;;;;;;60.17;31.58;;;;;;;4.28;60.48;101365.41;6277837;22;20012;-82
2022/03/10 01:39:18;;;;;;;61.53;30.08;;;;;;;4.41;59.73;101374.16;6277956;22;20014;-80
2022/03/10 01:41:44;;;;;;;59.78;30.50;;;;;;;3.88;61.77;101371.59;6277760;22;20116;-81
2022/03/10 01:44:10;;;;;;;60.45;30.63;;;;;;;3.84;61.92;101365.69;6278286;22;20008;-82
2022/03/10 01:46:37;;;;;;;59.65;29.30;;;;;;;3.93;61.80;101370.34;6277821;22;20008;-82
2022/03/10 01:49:04;;;;;;;64.75;31.20;;;;;;;3.91;62.14;101368.78;6277555;22;20016;-81
2022/03/10 01:51:31;;;;;;;64.95;29.65;;;;;;;3.54;62.98;101371.09;6278665;22;20012;-81
2022/03/10 01:53:57;;;;;;;61.13;28.60;;;;;;;3.29;64.27;101368.31;6280077;22;20335;-80
2022/03/10 01:56:24;;;;;;;56.80;28.90;;;;;;;3.54;64.23;101371.09;6283158;22;20128;-81
2022/03/10 01:58:52;;;;;;;57.60;29.15;;;;;;;3.75;62.84;101373.28;6302708;22;19999;-83
2022/03/10 02:01:19;;;;;;;60.88;30.25;;;;;;;3.77;62.72;101374.91;6302320;22;20076;-83
2022/03/10 02:03:51;;;;;;;70.45;30.02;;;;;;;3.85;62.81;101377.00;6278851;22;20012;-82
2022/03/10 02:06:17;;;;;;;59.22;29.42;;;;;;;4.04;61.79;101380.97;6278087;22;19999;-81
2022/03/10 02:11:28;;;;;;;56.63;28.45;;;;;;;4.07;61.90;101388.66;6277869;22;20012;-81
2022/03/10 02:13:58;;;;;;;65.70;30.80;;;;;;;3.91;62.81;101389.75;6277110;22;20011;-81
2022/03/10 02:19:07;;;;;;;64.32;32.38;;;;;;;3.73;64.33;101396.16;6277716;22;20069;-80
2022/03/10 02:21:35;;;;;;;66.00;33.05;;;;;;;3.74;63.75;101395.22;6277870;22;20370;-80
2022/03/10 02:24:01;;;;;;;65.32;32.50;;;;;;;3.53;64.74;101387.75;6277920;22;20012;-83
2022/03/10 02:26:26;;;;;;;66.88;31.80;;;;;;;3.51;64.70;101394.03;6277490;22;20075;-80
2022/03/10 02:28:52;;;;;;;73.32;34.20;;;;;;;3.31;66.84;101392.66;6277073;22;20039;-82
2022/03/10 02:31:17;;;;;;;71.07;34.08;;;;;;;3.28;66.77;101387.59;6277643;22;20037;-81
2022/03/10 02:33:43;;;;;;;67.63;32.75;;;;;;;3.41;65.82;101388.53;6277011;22;20012;-81
2022/03/10 02:36:08;;;;;;;76.30;35.65;;;;;;;3.25;66.48;101390.41;6277400;22;20018;-82
2022/03/10 02:38:34;;;;;;;75.32;35.10;;;;;;;3.14;66.53;101400.72;6277624;22;20099;-81
2022/03/10 02:40:59;;;;;;;78.03;34.20;;;;;;;2.89;67.85;101395.25;6277253;22;20018;-82
2022/03/10 02:43:25;;;;;;;74.38;35.40;;;;;;;2.73;68.36;101394.47;6277280;22;20015;-81
2022/03/10 02:45:51;;;;;;;68.97;32.72;;;;;;;2.44;69.26;101398.81;6277176;22;20095;-80
2022/03/10 02:48:17;;;;;;;65.95;31.60;;;;;;;2.51;69.93;101401.00;6277481;22;20016;-79
2022/03/10 02:50:45;;;;;;;67.50;32.03;;;;;;;2.59;69.36;101393.50;6277111;22;20095;-80
2022/03/10 02:53:11;;;;;;;72.40;32.20;;;;;;;2.96;67.43;101391.31;6277262;22;20007;-79
2022/03/10 02:55:38;;;;;;;66.22;32.10;;;;;;;3.14;66.66;101390.22;6277010;22;20091;-82
2022/03/10 02:58:04;;;;;;;63.25;31.15;;;;;;;3.46;65.48;101385.63;6277217;22;20012;-80
2022/03/10 03:00:29;;;;;;;72.40;33.47;;;;;;;3.19;66.21;101388.16;6277128;22;20011;-83
2022/03/10 03:02:55;;;;;;;70.78;32.28;;;;;;;3.10;66.27;101393.97;6276969;22;20034;-80
2022/03/10 03:05:20;;;;;;;64.32;31.13;;;;;;;3.37;65.30;101402.75;6277368;22;20091;-82
2022/03/10 03:07:48;;;;;;;65.72;31.25;;;;;;;3.45;65.66;101400.50;6278978;22;19999;-80
2022/03/10 03:10:14;;;;;;;63.92;31.50;;;;;;;3.67;64.07;101397.38;6276707;22;20057;-81
2022/03/10 03:12:51;;;;;;;62.80;31.23;;;;;;;3.73;64.08;101398.75;6276792;22;20336;-83
2022/03/10 03:15:17;;;;;;;63.25;30.65;;;;;;;3.71;63.56;101400.66;6276475;22;20541;-81
2022/03/10 03:17:43;;;;;;;63.75;31.95;;;;;;;3.57;64.25;101397.13;6276544;22;20012;-81
2022/03/10 03:20:14;;;;;;;64.72;31.88;;;;;;;3.45;64.67;101397.03;6276851;22;20058;-80
2022/03/10 03:22:43;;;;;;;68.57;33.10;;;;;;;3.08;66.15;101395.84;6276782;22;20062;-82
2022/03/10 03:25:11;;;;;;;67.60;30.95;;;;;;;2.84;67.75;101398.16;6269200;22;20015;-83
2022/03/10 03:27:36;;;;;;;69.40;33.22;;;;;;;2.53;69.11;101400.88;6276407;22;20339;-81
2022/03/10 03:30:04;;;;;;;62.13;31.10;;;;;;;2.72;68.36;101396.25;6275099;22;20019;-81
2022/03/10 03:32:30;;;;;;;57.55;28.92;;;;;;;2.59;68.63;101392.66;6274908;22;20019;-80
2022/03/10 03:34:55;;;;;;;63.70;30.55;;;;;;;2.70;68.39;101394.66;6276342;22;20012;-80
2022/03/10 03:37:21;;;;;;;63.92;28.95;;;;;;;2.88;67.87;101396.19;6277010;22;20039;-82
2022/03/10 03:39:46;;;;;;;59.55;30.17;;;;;;;2.96;66.90;101386.94;6276400;22;20015;-82
2022/03/10 03:42:12;;;;;;;61.20;29.25;;;;;;;2.98;66.20;101384.25;6275738;22;20010;-83
2022/03/10 03:44:37;;;;;;;62.67;29.08;;;;;;;2.94;66.11;101391.44;6276699;22;20018;-82
2022/03/10 03:47:03;;;;;;;55.33;27.98;;;;;;;3.17;65.33;101391.81;6276426;22;20007;-81
2022/03/10 03:49:28;;;;;;;59.65;27.98;;;;;;;3.24;64.57;101393.13;6276102;22;20331;-83
2022/03/10 03:51:54;;;;;;;55.33;27.75;;;;;;;3.41;63.99;101400.78;6274483;22;20003;-82
2022/03/10 03:54:19;;;;;;;57.75;27.85;;;;;;;3.39;63.23;101394.78;6274873;22;20012;-80
2022/03/10 03:56:45;;;;;;;57.35;28.45;;;;;;;3.40;64.12;101394.72;6276434;22;20072;-82
2022/03/10 03:59:10;;;;;;;58.38;28.05;;;;;;;3.52;63.60;101396.56;6276784;22;20011;-80
2022/03/10 04:01:36;;;;;;;60.35;29.33;;;;;;;3.44;63.50;101395.34;6276256;22;20015;-81
2022/03/10 04:04:01;;;;;;;54.78;28.33;;;;;;;3.24;64.35;101391.34;6277308;22;20042;-80
2022/03/10 04:06:27;;;;;;;52.55;27.67;;;;;;;3.41;63.64;101401.63;6280467;22;20015;-81
2022/03/10 04:08:53;;;;;;;54.95;27.75;;;;;;;3.49;63.07;101402.00;6275755;22;20041;-80
2022/03/10 04:11:18;;;;;;;63.45;30.25;;;;;;;3.25;63.48;101408.72;6276141;22;20000;-81
2022/03/10 04:13:44;;;;;;;59.88;29.83;;;;;;;2.94;65.81;101404.53;6275679;22;20039;-82
2022/03/10 04:16:10;;;;;;;58.33;28.95;;;;;;;2.66;67.01;101409.69;6275660;22;20016;-81
2022/03/10 04:18:36;;;;;;;58.70;28.63;;;;;;;2.46;68.29;101396.94;6275845;22;20011;-82
2022/03/10 04:21:01;;;;;;;62.75;29.58;;;;;;;2.41;68.54;101399.00;6275860;22;19991;-80
2022/03/10 04:23:27;;;;;;;59.63;30.02;;;;;;;2.56;67.88;101398.09;6276587;22;20038;-80
2022/03/10 04:25:53;;;;;;;63.72;30.60;;;;;;;2.59;67.80;101393.50;6274553;22;20061;-81
2022/03/10 04:28:24;;;;;;;61.75;28.27;;;;;;;2.91;66.82;101391.63;6275852;22;20058;-79
2022/03/10 04:30:50;;;;;;;59.50;29.23;;;;;;;2.79;66.78;101400.19;6274406;22;20011;-79
2022/03/10 04:33:17;;;;;;;62.05;28.33;;;;;;;2.94;66.03;101393.22;6275730;22;20008;-82
2022/03/10 04:35:43;;;;;;;55.03;27.67;;;;;;;3.09;65.62;101387.03;6279944;22;20078;-81
2022/03/10 04:38:09;;;;;;;62.53;28.95;;;;;;;3.23;65.17;101387.03;6276615;22;20069;-81
2022/03/10 04:40:34;;;;;;;61.83;30.13;;;;;;;2.59;67.35;101397.91;6280947;22;20004;-81
2022/03/10 04:43:00;;;;;;;60.13;30.23;;;;;;;2.42;68.67;101396.25;6292485;22;19999;-78
2022/03/10 04:45:26;;;;;;;64.43;30.95;;;;;;;2.48;68.24;101398.56;6303787;22;20053;-79
2022/03/10 04:47:55;;;;;;;64.68;30.38;;;;;;;2.67;68.05;101400.06;6284471;22;20012;-82
2022/03/10 04:50:20;;;;;;;60.03;30.05;;;;;;;2.88;66.58;101398.81;6275616;22;20074;-81
2022/03/10 04:52:46;;;;;;;58.47;27.60;;;;;;;3.09;65.77;101392.28;6276111;22;20418;-80
2022/03/10 04:55:12;;;;;;;59.00;27.83;;;;;;;3.22;64.99;101403.69;6275943;22;20083;-80
2022/03/10 04:57:39;;;;;;;64.38;28.15;;;;;;;3.38;64.06;101401.81;6275861;22;20066;-82
2022/03/10 05:00:10;;;;;;;54.60;27.73;;;;;;;3.50;63.75;101402.84;6275871;22;20028;-81
2022/03/10 05:02:38;;;;;;;59.90;29.30;;;;;;;3.27;63.68;101404.25;6276472;22;20488;-82
2022/03/10 05:05:04;;;;;;;58.50;27.83;;;;;;;3.40;63.31;101407.81;6277882;22;20446;-80
2022/03/10 05:07:29;;;;;;;67.13;31.02;;;;;;;2.98;64.18;101402.56;6276206;22;20004;-82
2022/03/10 05:09:55;;;;;;;65.88;28.98;;;;;;;2.71;65.46;101402.44;6277148;22;20012;-81
2022/03/10 05:12:20;;;;;;;59.03;28.50;;;;;;;2.44;66.87;101406.66;6275486;22;20452;-81
2022/03/10 05:14:46;;;;;;;64.53;29.77;;;;;;;2.59;66.64;101403.97;6275726;22;20061;-81
2022/03/10 05:17:12;;;;;;;62.08;28.92;;;;;;;2.63;66.30;101409.88;6276397;22;20451;-81
2022/03/10 05:19:37;;;;;;;59.38;29.73;;;;;;;2.81;65.48;101407.97;6281503;22;20071;-80
2022/03/10 05:22:03;;;;;;;57.20;27.88;;;;;;;2.88;65.23;101404.06;6278503;22;20008;-80
2022/03/10 05:24:29;;;;;;;61.08;28.02;;;;;;;2.96;64.89;101397.41;6277485;22;20065;-83
2022/03/10 05:26:54;;;;;;;61.40;27.65;;;;;;;3.05;64.95;101406.47;6277168;22;20011;-81
2022/03/10 05:29:20;;;;;;;63.67;29.60;;;;;;;3.14;64.41;101405.94;6275208;22;20019;-82
2022/03/10 05:31:45;;;;;;;66.78;29.25;;;;;;;3.11;64.53;101411.38;6277266;22;20043;-80
2022/03/10 05:34:11;;;;;;;60.72;28.05;;;;;;;3.20;63.93;101418.66;6275949;22;20082;-81
2022/03/10 05:36:37;;;;;;;56.45;27.42;;;;;;;3.24;64.17;101417.53;6276200;22;20010;-80
2022/03/10 05:39:04;;;;;;;66.82;30.00;;;;;;;3.20;63.92;101425.66;6276055;22;20018;-81
2022/03/10 05:41:35;;;;;;;62.20;28.48;;;;;;;2.98;64.90;101419.09;6275714;22;20015;-81
2022/03/10 05:44:01;;;;;;;59.80;27.98;;;;;;;3.03;64.44;101413.59;6275962;22;20096;-81
2022/03/10 05:46:26;;;;;;;71.10;30.30;;;;;;;2.90;64.33;101418.72;6275448;22;20435;-82
2022/03/10 05:48:58;;;;;;;60.00;28.75;;;;;;;3.10;64.24;101420.16;6279630;22;20043;-86
2022/03/10 05:51:23;;;;;;;64.10;29.50;;;;;;;3.11;63.96;101425.31;6282221;22;20012;-86
2022/03/10 05:53:50;;;;;;;61.83;28.40;;;;;;;3.52;63.09;101425.38;6283043;22;20076;-86
2022/03/10 05:56:15;;;;;;;67.80;30.50;;;;;;;3.92;62.44;101421.09;6279555;22;20011;-85
2022/03/10 05:58:45;;;;;;;69.18;29.85;;;;;;;3.85;61.59;101424.19;6281221;22;20008;-88
2022/03/10 06:01:11;;;;;;;58.38;28.88;;;;;;;3.46;62.39;101428.38;6279541;22;20027;-84
2022/03/10 06:03:37;;;;;;;77.63;31.38;;;;;;;3.14;64.29;101421.66;6280357;22;20007;-85
2022/03/10 06:06:02;;;;;;;66.80;30.58;;;;;;;3.53;64.30;101419.22;6286598;22;20011;-82
2022/03/10 06:08:30;;;;;;;69.65;32.33;;;;;;;3.87;61.60;101427.59;6300538;22;20071;-83
2022/03/10 06:10:57;;;;;;;64.70;30.48;;;;;;;3.99;60.78;101439.91;6282907;22;20019;-83
2022/03/10 06:13:23;;;;;;;69.00;28.95;;;;;;;4.63;59.83;101445.31;6278506;22;20011;-82
2022/03/10 06:15:52;;;;;;;63.35;30.60;;;;;;;4.86;57.59;101451.63;6282413;22;20008;-84
2022/03/10 06:18:18;;;;;;;87.47;30.70;;;;;;;4.44;59.45;101455.31;6293890;22;20011;-86
2022/03/10 06:20:44;;;;;;;65.90;28.80;;;;;;;4.84;57.79;101458.75;6283096;22;20018;-84
2022/03/10 06:23:09;;;;;;;69.93;29.70;;;;;;;5.38;56.01;101461.22;6285316;22;20043;-89
2022/03/10 06:25:35;;;;;;;65.95;29.10;;;;;;;5.96;55.08;101460.66;6285110;22;20015;-85
2022/03/10 06:28:01;;;;;;;62.25;29.17;;;;;;;7.05;51.65;101468.31;6254834;22;20109;-84
2022/03/10 06:30:30;;;;;;;75.30;28.25;;;;;;;7.15;50.47;101469.28;6280676;22;20053;-85
2022/03/10 06:32:55;;;;;;;60.42;28.60;;;;;;;7.97;49.63;101468.09;6281974;22;20012;-87
2022/03/10 06:35:21;;;;;;;67.20;29.33;;;;;;;8.69;47.38;101470.09;6281797;22;20062;-90
2022/03/10 06:37:47;;;;;;;57.15;29.60;;;;;;;9.56;44.51;101474.13;6258769;22;20187;-86
2022/03/10 06:40:31;;;;;;;59.58;29.52;;;;;;;10.12;42.65;101474.47;6295101;22;20026;-86
2022/03/10 06:42:58;;;;;;;56.33;28.25;;;;;;;10.07;42.34;101474.06;6303144;22;19996;-84
2022/03/10 06:45:23;;;;;;;58.30;29.10;;;;;;;10.51;40.92;101472.75;6304586;22;20022;-87
2022/03/10 06:47:55;;;;;;;54.08;28.77;;;;;;;9.47;42.62;101487.31;6315999;22;20023;-89
2022/03/10 07:01:30;;;;;;;63.08;29.58;;;;;;;9.99;42.13;101492.41;6271981;22;20016;-84
2022/03/10 07:03:57;;;;;;;54.08;27.73;;;;;;;10.17;42.26;101490.84;6276900;22;20012;-84
2022/03/10 07:06:26;;;;;;;55.10;29.27;;;;;;;10.92;40.79;101490.19;6277450;22;20027;-85
2022/03/10 07:08:52;;;;;;;65.35;29.10;;;;;;;11.63;39.15;101493.28;6276651;22;20039;-85
2022/03/10 07:11:18;;;;;;;59.88;29.08;;;;;;;12.20;38.67;101489.50;6250241;22;20019;-84
2022/03/10 07:13:47;;;;;;;61.65;29.73;;;;;;;11.66;38.71;101499.13;6279672;22;20069;-82
2022/03/10 07:16:13;;;;;;;72.20;30.60;;;;;;;11.98;38.17;101497.91;6249601;22;20012;-85
2022/03/10 07:18:39;;;;;;;60.63;29.77;;;;;;;11.27;40.50;101502.84;6278081;22;20016;-84
2022/03/10 07:21:05;;;;;;;63.45;31.05;;;;;;;11.43;39.78;101497.81;6280325;22;20000;-85
2022/03/10 07:23:32;;;;;;;72.15;31.17;;;;;;;11.13;40.17;101500.66;6292060;22;20011;-85
2022/03/10 07:25:58;;;;;;;71.05;30.98;;;;;;;11.12;40.76;101504.28;6298643;22;20411;-84
2022/03/10 07:28:28;;;;;;;57.92;31.13;;;;;;;11.31;40.47;101499.78;6293172;22;20015;-85
2022/03/10 07:30:53;;;;;;;61.60;31.88;;;;;;;11.47;39.99;101509.78;6277173;22;20016;-84
2022/03/10 07:33:21;;;;;;;61.70;31.23;;;;;;;12.55;38.98;101508.19;6276859;22;20056;-84
2022/03/10 07:35:47;;;;;;;64.50;31.90;;;;;;;13.12;37.15;101511.41;6275387;22;20079;-86
2022/03/10 07:38:13;;;;;;;60.25;31.58;;;;;;;12.49;38.23;101511.47;6275529;22;20031;-85
2022/03/10 07:40:38;;;;;;;63.50;32.17;;;;;;;13.91;36.12;101515.59;6248540;22;20057;-85
2022/03/10 07:43:05;;;;;;;62.88;32.78;;;;;;;14.43;35.96;101513.63;6276508;22;20094;-85
2022/03/10 07:45:35;;;;;;;68.68;32.67;;;;;;;14.55;35.77;101516.00;6277120;22;20058;-83
2022/03/10 07:48:00;;;;;;;64.88;33.15;;;;;;;14.11;35.40;101525.97;6277026;22;20016;-82
2022/03/10 07:50:26;;;;;;;65.25;32.67;;;;;;;13.75;35.70;101536.81;6250172;22;20004;-82
2022/03/10 07:52:52;;;;;;;60.25;31.95;;;;;;;13.59;36.98;101526.03;6278507;22;20087;-80
2022/03/10 07:55:18;;;;;;;65.20;31.85;;;;;;;13.33;37.58;101526.03;6278605;22;20019;-81
2022/03/10 07:57:44;;;;;;;56.22;30.10;;;;;;;14.43;36.20;101528.78;6274027;22;20012;-82
2022/03/10 08:00:11;;;;;;;60.40;29.17;;;;;;;14.32;35.96;101515.72;6275258;22;20454;-82
2022/03/10 08:02:37;;;;;;;52.88;29.55;;;;;;;14.34;36.08;101517.28;6277427;22;20016;-84
2022/03/10 08:05:04;;;;;;;54.35;28.42;;;;;;;15.27;34.22;101520.53;6276114;22;20018;-84
2022/03/10 08:07:32;;;;;;;53.08;29.17;;;;;;;15.35;34.48;101518.69;6277106;22;20008;-82
2022/03/10 08:10:06;;;;;;;53.45;29.85;;;;;;;16.45;32.57;101512.50;6250772;22;20343;-84
2022/03/10 08:12:35;;;;;;;54.88;29.10;;;;;;;16.46;32.59;101515.00;6278000;22;20007;-83
2022/03/10 08:15:01;;;;;;;53.47;28.75;;;;;;;16.73;32.22;101511.03;6277555;22;20004;-83
2022/03/10 08:17:27;;;;;;;54.90;29.63;;;;;;;15.62;33.21;101509.50;6278120;22;20505;-84
2022/03/10 08:19:54;;;;;;;49.17;27.98;;;;;;;14.88;34.52;101509.72;6274145;22;20016;-82
2022/03/10 08:22:20;;;;;;;53.80;29.58;;;;;;;14.76;34.26;101501.19;6275213;22;20011;-85
2022/03/10 08:24:46;;;;;;;52.75;29.40;;;;;;;15.06;33.57;101501.53;6268605;22;20015;-84
2022/03/10 08:27:15;;;;;;;60.22;29.88;;;;;;;15.39;33.53;101500.50;6241400;22;20030;-85
2022/03/10 08:29:42;;;;;;;57.13;29.90;;;;;;;15.41;33.21;101503.84;6246161;22;20020;-83
2022/03/10 08:32:08;;;;;;;57.55;30.50;;;;;;;15.12;33.06;101495.50;6274428;22;20098;-83
2022/03/10 08:34:35;;;;;;;54.63;29.58;;;;;;;16.19;31.61;101495.91;6268416;22;20498;-83
2022/03/10 08:37:04;;;;;;;52.20;28.77;;;;;;;16.50;30.65;101489.53;6277612;22;20023;-89
2022/03/10 08:39:33;;;;;;;54.15;29.02;;;;;;;16.25;31.46;101500.56;6287893;22;20012;-89
2022/03/10 08:42:07;;;;;;;55.57;29.97;;;;;;;16.13;31.91;101492.13;6290442;22;20027;-90
2022/03/10 08:44:35;;;;;;;59.88;30.10;;;;;;;16.35;31.44;101493.16;6290538;22;20238;-89
2022/03/10 08:47:06;;;;;;;58.67;31.77;;;;;;;15.84;31.49;101483.88;6288868;22;20014;-88
2022/03/10 08:50:13;;;;;;;58.42;30.00;;;;;;;15.89;32.03;101487.69;6285768;22;20026;-89
2022/03/10 08:52:39;;;;;;;;;;;;;;;16.80;31.18;101489.72;6291733;22;20012;-90
2022/03/10 08:55:06;;;;;;;60.90;32.47;;;;;;;16.81;30.35;101492.22;6288825;22;19910;-89
2022/03/10 08:57:33;;;;;;;69.38;32.90;;;;;;;16.10;31.48;101487.13;6296833;22;20035;-88
2022/03/10 09:00:19;;;;;;;70.32;34.95;;;;;;;16.62;30.34;101495.38;6277726;22;19995;-86
2022/03/10 09:02:50;;;;;;;62.65;33.33;;;;;;;16.45;30.67;101485.75;6276124;22;20003;-89
2022/03/10 09:05:23;;;;;;;64.03;32.67;;;;;;;17.61;29.24;101495.19;6304124;22;20003;-89
2022/03/10 09:10:35;;;;;;;61.88;33.38;;;;;;;17.46;30.12;101481.75;6271268;22;20059;-88
2022/03/10 09:13:28;;;;;;;64.88;33.25;;;;;;;17.42;29.99;101485.81;6240556;22;20000;-86
2022/03/10 09:16:01;;;;;;;69.38;33.00;;;;;;;18.28;28.63;101485.13;6273628;22;20003;-88
2022/03/10 09:18:38;;;;;;;63.03;31.33;;;;;;;17.87;29.15;101490.19;6247725;22;20000;-88
2022/03/10 09:21:27;;;;;;;63.28;33.60;;;;;;;17.03;30.31;101486.00;6271899;22;20060;-89
2022/03/10 09:24:03;;;;;;;66.30;33.47;;;;;;;18.71;28.17;101486.06;6266841;22;20003;-89
2022/03/10 09:26:29;;;;;;;62.78;32.85;;;;;;;19.39;27.56;101489.94;6292727;22;20035;-83
2022/03/10 09:28:54;;;;;;;64.30;33.92;;;;;;;19.15;28.12;101488.53;6276407;22;20033;-83
2022/03/10 09:31:20;;;;;;;62.33;33.28;;;;;;;18.64;29.02;101487.84;6304362;22;20007;-82
2022/03/10 09:33:46;;;;;;;62.17;33.83;;;;;;;18.11;29.60;101480.16;6276836;22;20014;-82
2022/03/10 09:36:11;;;;;;;59.22;34.35;;;;;;;18.39;29.06;101467.72;6276160;22;20857;-82
2022/03/10 09:38:37;;;;;;;62.35;34.90;;;;;;;18.81;28.48;101488.41;6304687;22;20007;-83
2022/03/10 09:41:03;;;;;;;59.63;32.10;;;;;;;18.54;28.69;101487.31;6278906;22;20018;-83
2022/03/10 09:43:29;;;;;;;60.63;34.90;;;;;;;18.80;27.70;101487.56;6306756;22;20007;-82
2022/03/10 09:45:55;;;;;;;64.68;35.15;;;;;;;19.41;26.98;101491.44;6306462;22;20465;-82
2022/03/10 09:48:20;;;;;;;64.70;35.95;;;;;;;19.94;25.90;101486.38;6306885;22;20011;-83
2022/03/10 09:50:48;;;;;;;63.67;34.58;;;;;;;20.55;25.03;101484.53;6306315;22;20419;-83
2022/03/10 09:53:15;;;;;;;63.15;32.95;;;;;;;19.38;25.78;101481.03;6306785;22;20339;-83
2022/03/10 09:55:41;;;;;;;59.20;33.90;;;;;;;19.99;25.83;101479.34;6306105;22;20015;-83
2022/03/10 09:58:07;;;;;;;63.65;34.28;;;;;;;19.76;26.07;101484.19;6279311;22;20014;-83
2022/03/10 10:00:33;;;;;;;68.40;34.85;;;;;;;20.02;25.79;101476.25;6308223;22;20054;-83
2022/03/10 10:02:58;;;;;;;62.13;32.97;;;;;;;19.46;25.99;101475.53;6289324;22;20035;-83
2022/03/10 10:05:29;;;;;;;59.10;32.75;;;;;;;20.21;24.97;101476.53;6299834;22;20068;-84
2022/03/10 10:08:03;;;;;;;61.22;33.95;;;;;;;20.61;24.31;101473.75;6334112;22;20026;-85
2022/03/10 10:10:31;;;;;;;61.85;34.28;;;;;;;19.79;25.21;101483.78;6287759;22;20011;-82
2022/03/10 10:12:56;;;;;;;57.90;32.70;;;;;;;20.83;24.71;101487.91;6305967;22;20083;-80
2022/03/10 10:15:22;;;;;;;60.25;32.78;;;;;;;21.44;22.98;101480.44;6305461;22;20046;-82
2022/03/10 10:17:56;;;;;;;61.10;34.25;;;;;;;22.03;22.88;101485.72;6305403;22;20384;-82
2022/03/10 10:20:22;;;;;;;70.70;33.63;;;;;;;21.67;23.16;101480.00;6307285;22;21495;-85
2022/03/10 10:22:48;;;;;;;68.68;34.08;;;;;;;21.78;22.43;101482.03;6307453;22;20003;-85
2022/03/10 10:25:20;;;;;;;62.35;33.67;;;;;;;21.98;22.33;101477.44;6308157;22;20007;-85
2022/03/10 10:27:46;;;;;;;61.30;32.90;;;;;;;22.23;21.93;101484.81;6290011;22;20007;-83
2022/03/10 10:30:12;;;;;;;56.10;33.88;;;;;;;22.29;21.44;101473.97;6307339;22;20019;-85
2022/03/10 10:32:49;;;;;;;58.90;33.88;;;;;;;22.04;21.45;101479.28;6307056;22;20007;-84
2022/03/10 10:35:25;;;;;;;59.97;32.72;;;;;;;22.46;21.39;101477.00;6313709;22;20076;-85
2022/03/10 10:37:54;;;;;;;57.75;33.75;;;;;;;22.07;20.90;101476.13;6313389;22;20015;-84
2022/03/10 10:40:24;;;;;;;61.17;33.47;;;;;;;21.55;21.00;101478.97;6307571;22;20469;-83
2022/03/10 10:42:50;;;;;;;58.63;33.63;;;;;;;22.19;21.43;101467.38;6306736;22;20455;-83
2022/03/10 10:45:32;;;;;;;63.92;33.65;;;;;;;21.11;22.01;101479.66;6307242;22;20011;-83
2022/03/10 10:47:59;;;;;;;54.50;31.63;;;;;;;22.73;21.07;101456.91;6307143;22;20017;-82
2022/03/10 10:50:28;;;;;;;59.20;33.13;;;;;;;23.63;19.68;101463.59;6279049;22;20065;-83
2022/03/10 10:52:54;;;;;;;59.17;33.60;;;;;;;22.97;20.42;101475.00;6306855;22;20082;-81
2022/03/10 10:55:20;;;;;;;57.00;32.78;;;;;;;22.91;21.06;101465.06;6306514;22;20042;-81
2022/03/10 10:57:45;;;;;;;55.22;32.08;;;;;;;22.98;20.62;101455.03;6306603;22;20338;-83
2022/03/10 11:00:13;;;;;;;57.40;31.02;;;;;;;23.32;20.10;101452.84;6307170;22;20028;-82
2022/03/10 11:02:43;;;;;;;50.58;31.05;;;;;;;25.00;18.62;101447.34;6306105;22;20499;-83
2022/03/10 11:05:12;;;;;;;55.42;30.13;;;;;;;25.46;17.72;101453.81;6306431;22;20003;-82
2022/03/10 11:07:41;;;;;;;54.38;31.45;;;;;;;26.48;16.58;101444.03;6306718;22;20022;-81
2022/03/10 11:10:09;;;;;;;50.30;28.27;;;;;;;26.24;16.29;101445.19;6280430;22;20113;-81
2022/03/10 11:12:41;;;;;;;47.65;28.48;;;;;;;26.31;15.75;101438.56;6306094;22;20013;-81
2022/03/10 11:15:08;;;;;;;42.28;26.13;;;;;;;26.75;14.62;101439.59;6306372;22;20331;-82
2022/03/10 11:17:35;;;;;;;56.65;30.63;;;;;;;26.86;15.56;101441.44;6306100;22;20539;-82
2022/03/10 11:20:07;;;;;;;51.08;29.38;;;;;;;26.20;16.06;101434.00;6306963;22;20007;-83
2022/03/10 11:22:41;;;;;;;46.90;29.57;;;;;;;24.33;17.34;101428.81;6312108;22;20012;-87
2022/03/10 11:25:34;;;;;;;52.78;31.27;;;;;;;21.36;20.41;101423.22;6331145;22;20013;-87
2022/03/10 11:28:27;;;;;;;49.95;30.10;;;;;;;22.25;19.73;101409.78;6329904;22;20018;-85
2022/03/10 11:31:16;;;;;;;54.42;32.00;;;;;;;24.62;17.94;101412.50;6297521;22;20311;-86
2022/03/10 11:33:51;;;;;;;57.60;30.75;;;;;;;23.21;18.85;101402.19;6299045;22;20034;-84
2022/03/10 11:36:36;;;;;;;57.15;31.60;;;;;;;23.91;18.24;101408.91;6326063;22;20015;-82